createdAt,value
2018-07-27T00:00:11.724Z,100486.84
2018-07-27T00:01:15.150Z,100483.84
2018-07-27T00:02:18.553Z,100475.45
2018-07-27T00:03:21.956Z,100485.84
2018-07-27T00:04:25.354Z,100488.44
2018-07-27T00:05:28.736Z,100485.64
2018-07-27T00:06:32.175Z,100481.45
2018-07-27T00:07:35.561Z,100483.64
2018-07-27T00:08:38.955Z,100482.25
2018-07-27T00:09:42.379Z,100480.05
2018-07-27T00:10:45.772Z,100481.45
2018-07-27T00:11:49.212Z,100477.85
2018-07-27T00:12:52.639Z,100479.85
2018-07-27T00:13:56.033Z,100474.05
2018-07-27T00:14:59.589Z,100475.66
2018-07-27T00:16:03.023Z,100475.45
2018-07-27T00:17:06.766Z,100476.86
2018-07-27T00:18:10.170Z,100479.25
2018-07-27T00:19:13.623Z,100475.66
2018-07-27T00:20:17.057Z,100476.45
2018-07-27T00:21:20.506Z,100475.66
2018-07-27T00:22:23.997Z,100478.65
2018-07-27T00:23:27.388Z,100479.45
2018-07-27T00:24:30.790Z,100480.65
2018-07-27T00:25:34.197Z,100478.65
2018-07-27T00:26:37.626Z,100472.86
2018-07-27T00:27:41.068Z,100479.45
2018-07-27T00:28:44.464Z,100472.26
2018-07-27T00:29:47.864Z,100476.65
2018-07-27T00:30:51.260Z,100473.05
2018-07-27T00:31:54.664Z,100471.45
2018-07-27T00:32:58.059Z,100472.26
2018-07-27T00:34:01.467Z,100471.45
2018-07-27T00:35:04.901Z,100472.86
2018-07-27T00:36:08.324Z,100474.25
2018-07-27T00:37:11.747Z,100470.66
2018-07-27T00:38:15.191Z,100471.06
2018-07-27T00:39:18.581Z,100471.66
2018-07-27T00:40:22.115Z,100470.26
2018-07-27T00:41:25.534Z,100469.46
2018-07-27T00:42:28.954Z,100472.26
2018-07-27T00:43:32.456Z,100467.27
2018-07-27T00:44:35.860Z,100473.86
2018-07-27T00:45:39.270Z,100472.26
2018-07-27T00:46:42.676Z,100470.06
2018-07-27T00:47:46.076Z,100467.27
2018-07-27T00:48:49.495Z,100469.46
2018-07-27T00:49:52.893Z,100471.45
2018-07-27T00:50:56.277Z,100468.46
2018-07-27T00:51:59.679Z,100473.26
2018-07-27T00:53:03.080Z,100466.86
2018-07-27T00:54:06.583Z,100472.46
2018-07-27T00:55:10.009Z,100468.27
2018-07-27T00:56:13.439Z,100465.47
2018-07-27T00:57:16.849Z,100465.47
2018-07-27T00:58:20.280Z,100464.87
2018-07-27T00:59:23.928Z,100470.27
2018-07-27T01:00:27.339Z,100464.27
2018-07-27T01:01:30.748Z,100465.87
2018-07-27T01:02:34.127Z,100467.27
2018-07-27T01:03:37.498Z,100462.88
2018-07-27T01:04:40.896Z,100463.47
2018-07-27T01:05:44.307Z,100467.87
2018-07-27T01:06:47.712Z,100459.28
2018-07-27T01:07:51.143Z,100463.47
2018-07-27T01:08:54.535Z,100461.47
2018-07-27T01:09:57.951Z,100458.67
2018-07-27T01:11:01.330Z,100454.25
2018-07-27T01:12:04.821Z,100463.24
2018-07-27T01:13:08.474Z,100457.65
2018-07-27T01:14:11.838Z,100459.05
2018-07-27T01:15:15.258Z,100452.05
2018-07-27T01:16:18.662Z,100454.05
2018-07-27T01:17:22.044Z,100453.45
2018-07-27T01:18:25.545Z,100456.05
2018-07-27T01:19:28.949Z,100459.65
2018-07-27T01:20:32.413Z,100455.45
2018-07-27T01:21:35.785Z,100458.25
2018-07-27T01:22:39.330Z,100457.45
2018-07-27T01:23:42.749Z,100455.86
2018-07-27T01:24:46.150Z,100455.86
2018-07-27T01:25:49.598Z,100452.26
2018-07-27T01:26:53.008Z,100453.86
2018-07-27T01:27:56.416Z,100458.05
2018-07-27T01:28:59.802Z,100455.86
2018-07-27T01:30:03.331Z,100450.27
2018-07-27T01:31:06.794Z,100451.06
2018-07-27T01:32:10.246Z,100454.66
2018-07-27T01:33:13.660Z,100453.05
2018-07-27T01:34:17.053Z,100446.67
2018-07-27T01:35:20.444Z,100447.86
2018-07-27T01:36:23.856Z,100451.66
2018-07-27T01:37:27.242Z,100449.66
2018-07-27T01:38:30.645Z,100452.46
2018-07-27T01:39:34.033Z,100451.66
2018-07-27T01:40:37.554Z,100445.67
2018-07-27T01:41:41.385Z,100445.67
2018-07-27T01:42:44.833Z,100441.48
2018-07-27T01:43:48.239Z,100445.08
2018-07-27T01:44:51.645Z,100434.29
2018-07-27T01:45:55.055Z,100443.08
2018-07-27T01:46:58.502Z,100442.08
2018-07-27T01:48:01.898Z,100440.48
2018-07-27T01:49:05.816Z,100438.48
2018-07-27T01:50:09.239Z,100437.88
2018-07-27T01:51:12.614Z,100440.28
2018-07-27T01:52:16.006Z,100440.28
2018-07-27T01:53:19.408Z,100443.08
2018-07-27T01:54:22.814Z,100444.48
2018-07-27T01:55:26.250Z,100441.68
2018-07-27T01:56:29.645Z,100443.08
2018-07-27T01:57:33.047Z,100438.09
2018-07-27T01:58:36.496Z,100438.69
2018-07-27T01:59:39.917Z,100439.48
2018-07-27T02:00:43.324Z,100436.48
2018-07-27T02:01:46.713Z,100443.08
2018-07-27T02:02:50.125Z,100445.67
2018-07-27T02:03:53.582Z,100442.88
2018-07-27T02:04:56.984Z,100441.48
2018-07-27T02:06:00.464Z,100441.68
2018-07-27T02:07:03.800Z,100435.69
2018-07-27T02:08:07.204Z,100435.49
2018-07-27T02:09:10.822Z,100439.09
2018-07-27T02:10:14.239Z,100443.87
2018-07-27T02:11:17.625Z,100433.86
2018-07-27T02:12:21.036Z,100441.08
2018-07-27T02:13:24.478Z,100441.08
2018-07-27T02:14:27.907Z,100434.46
2018-07-27T02:15:31.304Z,100433.06
2018-07-27T02:16:34.662Z,100432.47
2018-07-27T02:17:38.354Z,100431.06
2018-07-27T02:18:41.772Z,100429.30
2018-07-27T02:19:45.158Z,100432.09
2018-07-27T02:20:48.566Z,100432.09
2018-07-27T02:21:52.003Z,100425.70
2018-07-27T02:22:55.407Z,100432.70
2018-07-27T02:23:58.966Z,100429.90
2018-07-27T02:25:02.356Z,100422.11
2018-07-27T02:26:05.797Z,100426.30
2018-07-27T02:27:09.206Z,100421.88
2018-07-27T02:28:12.591Z,100422.68
2018-07-27T02:29:15.977Z,100421.08
2018-07-27T02:30:19.377Z,100419.69
2018-07-27T02:31:22.806Z,100418.29
2018-07-27T02:32:26.184Z,100418.09
2018-07-27T02:33:29.624Z,100414.69
2018-07-27T02:34:33.026Z,100420.88
2018-07-27T02:35:36.463Z,100416.49
2018-07-27T02:36:39.880Z,100415.89
2018-07-27T02:37:43.258Z,100417.69
2018-07-27T02:38:46.648Z,100414.89
2018-07-27T02:39:50.101Z,100421.88
2018-07-27T02:40:53.497Z,100414.09
2018-07-27T02:41:56.956Z,100413.09
2018-07-27T02:43:00.392Z,100416.70
2018-07-27T02:44:03.840Z,100416.89
2018-07-27T02:45:07.524Z,100422.28
2018-07-27T02:46:11.130Z,100417.30
2018-07-27T02:47:14.576Z,100419.69
2018-07-27T02:48:17.972Z,100414.09
2018-07-27T02:49:21.362Z,100420.48
2018-07-27T02:50:24.795Z,100415.69
2018-07-27T02:51:28.280Z,100413.70
2018-07-27T02:52:31.641Z,100412.30
2018-07-27T02:53:35.034Z,100412.50
2018-07-27T02:54:38.503Z,100412.09
2018-07-27T02:55:41.963Z,100413.50
2018-07-27T02:56:45.387Z,100411.30
2018-07-27T02:57:48.770Z,100410.70
2018-07-27T02:58:52.163Z,100408.50
2018-07-27T02:59:55.550Z,100408.50
2018-07-27T03:00:59.039Z,100414.89
2018-07-27T03:02:02.457Z,100410.92
2018-07-27T03:03:06.113Z,100406.50
2018-07-27T03:04:09.516Z,100411.30
2018-07-27T03:05:12.933Z,100413.70
2018-07-27T03:06:16.361Z,100412.90
2018-07-27T03:07:19.752Z,100410.30
2018-07-27T03:08:23.173Z,100410.11
2018-07-27T03:09:26.560Z,100410.30
2018-07-27T03:10:29.996Z,100409.31
2018-07-27T03:11:33.402Z,100411.91
2018-07-27T03:12:36.784Z,100403.69
2018-07-27T03:13:40.199Z,100407.09
2018-07-27T03:14:43.602Z,100410.88
2018-07-27T03:15:46.993Z,100410.08
2018-07-27T03:16:50.423Z,100405.69
2018-07-27T03:17:53.789Z,100413.87
2018-07-27T03:18:57.188Z,100410.28
2018-07-27T03:20:00.603Z,100407.09
2018-07-27T03:21:04.013Z,100412.68
2018-07-27T03:22:07.526Z,100410.28
2018-07-27T03:23:10.932Z,100413.87
2018-07-27T03:24:14.354Z,100407.89
2018-07-27T03:25:17.758Z,100407.69
2018-07-27T03:26:21.166Z,100410.28
2018-07-27T03:27:24.620Z,100415.08
2018-07-27T03:28:28.008Z,100411.48
2018-07-27T03:29:31.417Z,100409.28
2018-07-27T03:30:34.819Z,100409.89
2018-07-27T03:31:38.232Z,100406.63
2018-07-27T03:32:41.648Z,100408.03
2018-07-27T03:33:45.056Z,100412.22
2018-07-27T03:34:48.476Z,100406.43
2018-07-27T03:35:51.850Z,100406.43
2018-07-27T03:36:55.244Z,100399.84
2018-07-27T03:37:58.699Z,100404.63
2018-07-27T03:39:02.124Z,100404.03
2018-07-27T03:40:06.187Z,100405.83
2018-07-27T03:41:11.086Z,100399.25
2018-07-27T03:42:14.529Z,100397.25
2018-07-27T03:43:17.953Z,100404.03
2018-07-27T03:44:21.364Z,100399.64
2018-07-27T03:45:24.744Z,100402.23
2018-07-27T03:46:28.137Z,100406.63
2018-07-27T03:47:31.540Z,100399.24
2018-07-27T03:48:34.962Z,100397.05
2018-07-27T03:49:38.355Z,100401.84
2018-07-27T03:50:42.126Z,100408.83
2018-07-27T03:51:45.531Z,100404.63
2018-07-27T03:52:48.929Z,100401.64
2018-07-27T03:53:52.356Z,100398.05
2018-07-27T03:54:55.832Z,100404.23
2018-07-27T03:55:59.240Z,100403.63
2018-07-27T03:57:02.657Z,100404.23
2018-07-27T03:58:06.823Z,100401.20
2018-07-27T03:59:10.256Z,100401.20
2018-07-27T04:00:14.355Z,100401.20
2018-07-27T04:01:17.760Z,100403.20
2018-07-27T04:02:21.217Z,100405.40
2018-07-27T04:03:24.628Z,100403.20
2018-07-27T04:04:28.077Z,100404.40
2018-07-27T04:05:31.471Z,100408.59
2018-07-27T04:06:34.852Z,100403.41
2018-07-27T04:07:38.319Z,100400.41
2018-07-27T04:08:41.753Z,100400.41
2018-07-27T04:09:45.208Z,100397.61
2018-07-27T04:10:48.601Z,100401.80
2018-07-27T04:11:52.023Z,100403.00
2018-07-27T04:12:55.426Z,100398.81
2018-07-27T04:13:58.846Z,100403.00
2018-07-27T04:15:02.319Z,100405.59
2018-07-27T04:16:05.949Z,100407.79
2018-07-27T04:17:09.385Z,100411.19
2018-07-27T04:18:12.800Z,100408.59
2018-07-27T04:19:16.196Z,100409.38
2018-07-27T04:20:19.612Z,100410.34
2018-07-27T04:21:23.014Z,100407.55
2018-07-27T04:22:26.472Z,100415.72
2018-07-27T04:23:29.843Z,100411.29
2018-07-27T04:24:33.210Z,100412.47
2018-07-27T04:25:36.625Z,100417.17
2018-07-27T04:26:39.986Z,100413.78
2018-07-27T04:27:43.392Z,100418.95
2018-07-27T04:28:46.777Z,100416.34
2018-07-27T04:29:50.169Z,100417.34
2018-07-27T04:30:53.595Z,100418.09
2018-07-27T04:31:57.009Z,100421.47
2018-07-27T04:33:00.398Z,100411.89
2018-07-27T04:34:03.822Z,100413.47
2018-07-27T04:35:07.225Z,100417.45
2018-07-27T04:36:10.663Z,100417.45
2018-07-27T04:37:14.065Z,100416.01
2018-07-27T04:38:17.463Z,100416.60
2018-07-27T04:39:20.886Z,100420.98
2018-07-27T04:40:24.277Z,100411.20
2018-07-27T04:41:27.677Z,100418.59
2018-07-27T04:42:31.145Z,100415.39
2018-07-27T04:43:34.591Z,100418.58
2018-07-27T04:44:38.142Z,100421.16
2018-07-27T04:45:41.544Z,100421.97
2018-07-27T04:46:44.960Z,100416.38
2018-07-27T04:47:48.360Z,100417.98
2018-07-27T04:48:51.756Z,100418.77
2018-07-27T04:49:55.350Z,100415.97
2018-07-27T04:50:58.769Z,100413.14
2018-07-27T04:52:02.192Z,100419.11
2018-07-27T04:53:05.876Z,100414.31
2018-07-27T04:54:09.366Z,100417.31
2018-07-27T04:55:12.793Z,100420.48
2018-07-27T04:56:16.214Z,100419.69
2018-07-27T04:57:19.687Z,100415.51
2018-07-27T04:58:23.103Z,100410.52
2018-07-27T04:59:26.505Z,100414.91
2018-07-27T05:00:29.961Z,100413.52
2018-07-27T05:01:33.480Z,100412.72
2018-07-27T05:02:36.897Z,100409.53
2018-07-27T05:03:40.281Z,100412.12
2018-07-27T05:04:43.827Z,100416.70
2018-07-27T05:05:47.238Z,100413.70
2018-07-27T05:06:50.643Z,100410.52
2018-07-27T05:07:54.055Z,100409.31
2018-07-27T05:09:02.732Z,100404.33
2018-07-27T05:10:11.747Z,100407.72
2018-07-27T05:11:15.210Z,100413.09
2018-07-27T05:12:18.616Z,100411.41
2018-07-27T05:13:22.075Z,100401.62
2018-07-27T05:14:25.481Z,100399.83
2018-07-27T05:15:28.911Z,100402.00
2018-07-27T05:16:32.326Z,100416.16
2018-07-27T05:17:35.974Z,100408.38
2018-07-27T05:18:39.368Z,100415.75
2018-07-27T05:19:42.768Z,100411.56
2018-07-27T05:20:46.456Z,100412.17
2018-07-27T05:21:49.887Z,100410.80
2018-07-27T05:22:53.267Z,100410.48
2018-07-27T05:23:56.675Z,100413.20
2018-07-27T05:25:00.124Z,100412.01
2018-07-27T05:26:03.603Z,100410.59
2018-07-27T05:27:07.006Z,100407.21
2018-07-27T05:28:10.838Z,100411.98
2018-07-27T05:29:14.261Z,100410.59
2018-07-27T05:30:17.664Z,100414.88
2018-07-27T05:31:21.088Z,100408.30
2018-07-27T05:32:24.526Z,100416.86
2018-07-27T05:33:28.213Z,100415.47
2018-07-27T05:34:31.660Z,100413.64
2018-07-27T05:35:35.106Z,100410.61
2018-07-27T05:36:38.535Z,100416.17
2018-07-27T05:37:41.956Z,100415.97
2018-07-27T05:38:45.715Z,100416.75
2018-07-27T05:39:49.435Z,100417.75
2018-07-27T05:40:52.880Z,100421.16
2018-07-27T05:41:56.316Z,100414.20
2018-07-27T05:42:59.740Z,100408.61
2018-07-27T05:44:03.232Z,100415.17
2018-07-27T05:45:06.718Z,100411.98
2018-07-27T05:46:10.192Z,100418.37
2018-07-27T05:47:13.667Z,100418.18
2018-07-27T05:48:17.091Z,100412.01
2018-07-27T05:49:20.527Z,100414.44
2018-07-27T05:50:24.059Z,100419.86
2018-07-27T05:51:27.512Z,100415.67
2018-07-27T05:52:31.097Z,100409.31
2018-07-27T05:53:34.536Z,100416.70
2018-07-27T05:54:38.029Z,100412.52
2018-07-27T05:55:41.483Z,100415.51
2018-07-27T05:56:44.904Z,100412.12
2018-07-27T05:57:48.294Z,100408.94
2018-07-27T05:58:51.888Z,100416.53
2018-07-27T05:59:55.437Z,100410.35
2018-07-27T06:00:58.837Z,100412.98
2018-07-27T06:02:02.214Z,100407.81
2018-07-27T06:03:05.747Z,100409.20
2018-07-27T06:04:09.241Z,100408.22
2018-07-27T06:05:12.663Z,100404.03
2018-07-27T06:06:16.052Z,100409.42
2018-07-27T06:07:19.480Z,100403.04
2018-07-27T06:08:22.928Z,100403.65
2018-07-27T06:09:26.313Z,100410.03
2018-07-27T06:10:29.752Z,100406.84
2018-07-27T06:11:33.187Z,100414.83
2018-07-27T06:12:36.832Z,100415.63
2018-07-27T06:13:40.292Z,100415.86
2018-07-27T06:14:43.656Z,100414.47
2018-07-27T06:15:47.117Z,100417.45
2018-07-27T06:16:50.521Z,100414.27
2018-07-27T06:17:54.048Z,100411.69
2018-07-27T06:18:57.463Z,100416.67
2018-07-27T06:20:00.871Z,100411.89
2018-07-27T06:21:04.325Z,100410.70
2018-07-27T06:22:08.144Z,100412.30
2018-07-27T06:23:11.630Z,100410.30
2018-07-27T06:24:15.233Z,100410.70
2018-07-27T06:25:18.572Z,100412.11
2018-07-27T06:26:21.988Z,100409.72
2018-07-27T06:27:25.400Z,100411.31
2018-07-27T06:28:28.818Z,100410.56
2018-07-27T06:29:32.236Z,100410.77
2018-07-27T06:30:35.688Z,100410.16
2018-07-27T06:31:39.092Z,100409.56
2018-07-27T06:32:42.552Z,100405.59
2018-07-27T06:33:45.982Z,100410.57
2018-07-27T06:34:49.421Z,100410.37
2018-07-27T06:35:52.910Z,100407.79
2018-07-27T06:36:56.330Z,100417.16
2018-07-27T06:37:59.760Z,100408.39
2018-07-27T06:39:03.267Z,100411.39
2018-07-27T06:40:06.758Z,100408.00
2018-07-27T06:41:10.235Z,100412.26
2018-07-27T06:42:14.298Z,100414.25
2018-07-27T06:43:17.718Z,100413.46
2018-07-27T06:44:21.148Z,100407.48
2018-07-27T06:45:24.545Z,100407.28
2018-07-27T06:46:27.936Z,100410.28
2018-07-27T06:47:31.334Z,100414.67
2018-07-27T06:48:34.738Z,100409.88
2018-07-27T06:49:38.255Z,100404.30
2018-07-27T06:50:41.653Z,100410.28
2018-07-27T06:51:45.069Z,100409.69
2018-07-27T06:52:48.491Z,100411.52
2018-07-27T06:53:52.015Z,100407.90
2018-07-27T06:54:55.654Z,100412.31
2018-07-27T06:55:59.088Z,100407.33
2018-07-27T06:57:02.523Z,100409.09
2018-07-27T06:58:06.254Z,100410.92
2018-07-27T06:59:10.014Z,100405.11
2018-07-27T07:00:13.460Z,100409.30
2018-07-27T07:01:16.941Z,100408.33
2018-07-27T07:02:20.368Z,100410.53
2018-07-27T07:03:23.823Z,100406.94
2018-07-27T07:04:27.184Z,100406.55
2018-07-27T07:05:30.585Z,100406.55
2018-07-27T07:06:34.006Z,100405.75
2018-07-27T07:07:37.415Z,100405.75
2018-07-27T07:08:40.846Z,100406.34
2018-07-27T07:09:44.233Z,100403.75
2018-07-27T07:10:47.650Z,100405.14
2018-07-27T07:11:51.057Z,100402.36
2018-07-27T07:12:54.479Z,100405.55
2018-07-27T07:13:57.863Z,100404.75
2018-07-27T07:15:01.250Z,100407.14
2018-07-27T07:16:04.801Z,100404.16
2018-07-27T07:17:08.250Z,100405.16
2018-07-27T07:18:11.692Z,100403.16
2018-07-27T07:19:15.095Z,100398.37
2018-07-27T07:20:18.880Z,100404.16
2018-07-27T07:21:22.495Z,100399.97
2018-07-27T07:22:26.531Z,100402.96
2018-07-27T07:23:30.078Z,100402.59
2018-07-27T07:24:33.509Z,100407.59
2018-07-27T07:25:37.056Z,100401.40
2018-07-27T07:26:40.351Z,100401.59
2018-07-27T07:27:43.812Z,100400.80
2018-07-27T07:28:47.223Z,100402.20
2018-07-27T07:29:50.598Z,100403.20
2018-07-27T07:30:53.982Z,100401.40
2018-07-27T07:31:57.374Z,100403.59
2018-07-27T07:33:00.826Z,100399.81
2018-07-27T07:34:04.311Z,100402.80
2018-07-27T07:35:07.863Z,100397.22
2018-07-27T07:36:11.567Z,100398.41
2018-07-27T07:37:14.961Z,100404.00
2018-07-27T07:38:18.415Z,100400.41
2018-07-27T07:39:21.865Z,100403.20
2018-07-27T07:40:25.291Z,100401.61
2018-07-27T07:41:28.923Z,100399.41
2018-07-27T07:42:32.338Z,100400.01
2018-07-27T07:43:35.792Z,100398.02
2018-07-27T07:44:39.239Z,100393.02
2018-07-27T07:45:42.683Z,100399.41
2018-07-27T07:46:46.089Z,100395.22
2018-07-27T07:47:49.612Z,100397.22
2018-07-27T07:48:53.061Z,100397.22
2018-07-27T07:49:56.458Z,100393.02
2018-07-27T07:50:59.873Z,100399.41
2018-07-27T07:52:03.331Z,100392.82
2018-07-27T07:53:06.952Z,100396.02
2018-07-27T07:54:10.370Z,100392.42
2018-07-27T07:55:13.780Z,100389.03
2018-07-27T07:56:17.161Z,100386.04
2018-07-27T07:57:20.566Z,100391.83
2018-07-27T07:58:23.973Z,100389.83
2018-07-27T07:59:27.423Z,100387.83
2018-07-27T08:00:30.829Z,100378.66
2018-07-27T08:01:34.248Z,100383.45
2018-07-27T08:02:37.650Z,100382.05
2018-07-27T08:03:41.084Z,100383.64
2018-07-27T08:04:44.510Z,100381.65
2018-07-27T08:05:47.886Z,100378.86
2018-07-27T08:06:51.305Z,100379.85
2018-07-27T08:07:54.743Z,100376.06
2018-07-27T08:08:58.164Z,100375.46
2018-07-27T08:10:01.595Z,100369.88
2018-07-27T08:11:05.059Z,100370.67
2018-07-27T08:12:08.179Z,100372.87
2018-07-27T08:13:11.554Z,100369.28
2018-07-27T08:14:14.967Z,100372.87
2018-07-27T08:15:18.370Z,100368.08
2018-07-27T08:16:21.765Z,100370.08
2018-07-27T08:17:25.209Z,100368.08
2018-07-27T08:18:28.609Z,100372.27
2018-07-27T08:19:31.994Z,100368.67
2018-07-27T08:20:37.265Z,100370.27
2018-07-27T08:21:41.792Z,100371.88
2018-07-27T08:22:46.256Z,100371.88
2018-07-27T08:23:50.769Z,100366.88
2018-07-27T08:24:55.190Z,100366.28
2018-07-27T08:26:47.703Z,100371.88
2018-07-27T08:28:06.868Z,100365.72
2018-07-27T08:29:11.274Z,100367.91
2018-07-27T08:30:15.276Z,100366.52
2018-07-27T08:31:18.724Z,100363.13
2018-07-27T08:32:22.117Z,100359.53
2018-07-27T08:33:25.527Z,100367.91
2018-07-27T08:34:28.997Z,100364.52
2018-07-27T08:35:32.392Z,100359.53
2018-07-27T08:36:35.963Z,100363.13
2018-07-27T08:37:39.400Z,100362.52
2018-07-27T08:38:42.837Z,100367.31
2018-07-27T08:39:46.309Z,100363.31
2018-07-27T08:40:49.718Z,100361.12
2018-07-27T08:41:53.342Z,100362.72
2018-07-27T08:42:56.764Z,100360.52
2018-07-27T08:44:00.142Z,100359.92
2018-07-27T08:45:03.583Z,100356.34
2018-07-27T08:46:07.059Z,100356.53
2018-07-27T08:47:10.520Z,100354.54
2018-07-27T08:48:13.925Z,100356.53
2018-07-27T08:49:17.311Z,100353.14
2018-07-27T08:50:20.715Z,100352.55
2018-07-27T08:51:24.116Z,100356.73
2018-07-27T08:52:27.498Z,100353.94
2018-07-27T08:53:30.879Z,100356.73
2018-07-27T08:54:34.292Z,100357.53
2018-07-27T08:55:37.694Z,100358.73
2018-07-27T08:56:41.132Z,100353.14
2018-07-27T08:57:44.854Z,100354.54
2018-07-27T08:58:48.269Z,100344.95
2018-07-27T08:59:51.654Z,100351.94
2018-07-27T09:00:57.052Z,100352.14
2018-07-27T09:02:00.540Z,100346.55
2018-07-27T09:03:03.918Z,100347.16
2018-07-27T09:04:07.346Z,100347.95
2018-07-27T09:05:10.767Z,100349.34
2018-07-27T09:06:14.229Z,100342.95
2018-07-27T09:07:17.641Z,100344.55
2018-07-27T09:08:21.020Z,100345.95
2018-07-27T09:09:24.415Z,100343.95
2018-07-27T09:10:27.829Z,100338.97
2018-07-27T09:11:31.251Z,100342.36
2018-07-27T09:12:34.668Z,100339.77
2018-07-27T09:13:38.096Z,100336.97
2018-07-27T09:14:41.478Z,100338.37
2018-07-27T09:15:44.887Z,100341.16
2018-07-27T09:16:48.288Z,100342.56
2018-07-27T09:17:51.686Z,100331.98
2018-07-27T09:18:55.104Z,100329.38
2018-07-27T09:19:58.507Z,100335.77
2018-07-27T09:21:01.888Z,100332.18
2018-07-27T09:22:05.270Z,100332.18
2018-07-27T09:23:08.683Z,100338.57
2018-07-27T09:24:12.489Z,100335.97
2018-07-27T09:25:16.180Z,100337.37
2018-07-27T09:26:19.218Z,100328.79
2018-07-27T09:27:22.625Z,100328.19
2018-07-27T09:28:26.356Z,100326.19
2018-07-27T09:29:29.725Z,100335.97
2018-07-27T09:30:33.110Z,100324.80
2018-07-27T09:31:36.474Z,100330.38
2018-07-27T09:32:39.911Z,100325.59
2018-07-27T09:33:43.352Z,100322.00
2018-07-27T09:34:46.736Z,100333.38
2018-07-27T09:35:50.167Z,100333.38
2018-07-27T09:36:53.546Z,100323.59
2018-07-27T09:37:56.921Z,100327.59
2018-07-27T09:39:00.335Z,100329.98
2018-07-27T09:40:03.752Z,100323.59
2018-07-27T09:41:07.178Z,100326.39
2018-07-27T09:42:10.573Z,100324.39
2018-07-27T09:43:13.962Z,100330.18
2018-07-27T09:44:17.364Z,100327.98
2018-07-27T09:45:20.749Z,100323.19
2018-07-27T09:46:24.184Z,100323.80
2018-07-27T09:47:27.592Z,100317.00
2018-07-27T09:48:31.013Z,100319.80
2018-07-27T09:49:34.446Z,100314.21
2018-07-27T09:50:37.836Z,100311.22
2018-07-27T09:51:41.286Z,100310.02
2018-07-27T09:52:44.678Z,100312.81
2018-07-27T09:53:48.259Z,100308.02
2018-07-27T09:54:51.716Z,100310.81
2018-07-27T09:55:55.132Z,100305.23
2018-07-27T09:56:58.557Z,100312.41
2018-07-27T09:58:02.980Z,100313.02
2018-07-27T09:59:07.746Z,100310.22
2018-07-27T10:00:12.705Z,100307.42
2018-07-27T10:01:22.249Z,100314.01
2018-07-27T10:02:26.547Z,100313.81
2018-07-27T10:03:31.017Z,100316.61
2018-07-27T10:04:35.127Z,100310.42
2018-07-27T10:05:39.497Z,100310.42
2018-07-27T10:06:43.863Z,100304.03
2018-07-27T10:07:48.353Z,100303.43
2018-07-27T10:08:54.960Z,100305.09
2018-07-27T10:09:59.424Z,100302.03
2018-07-27T10:11:03.986Z,100307.63
2018-07-27T10:12:08.710Z,100304.83
2018-07-27T10:13:12.810Z,100304.83
2018-07-27T10:14:17.251Z,100300.30
2018-07-27T10:15:21.859Z,100304.23
2018-07-27T10:16:26.169Z,100297.50
2018-07-27T10:17:30.740Z,100307.48
2018-07-27T10:18:35.410Z,100298.30
2018-07-27T10:19:40.127Z,100296.70
2018-07-27T10:20:44.601Z,100291.91
2018-07-27T10:21:48.024Z,100289.11
2018-07-27T10:22:51.429Z,100294.11
2018-07-27T10:23:54.840Z,100293.30
2018-07-27T10:24:58.606Z,100292.70
2018-07-27T10:26:02.424Z,100292.70
2018-07-27T10:27:05.867Z,100285.12
2018-07-27T10:28:09.276Z,100292.11
2018-07-27T10:29:12.669Z,100290.31
2018-07-27T10:30:16.498Z,100290.71
2018-07-27T10:31:19.922Z,100285.92
2018-07-27T10:32:23.318Z,100282.52
2018-07-27T10:33:26.724Z,100288.71
2018-07-27T10:34:30.128Z,100282.52
2018-07-27T10:35:33.532Z,100281.92
2018-07-27T10:36:36.964Z,100285.31
2018-07-27T10:37:40.386Z,100288.71
2018-07-27T10:38:43.847Z,100292.91
2018-07-27T10:39:47.217Z,100291.70
2018-07-27T10:40:50.671Z,100283.32
2018-07-27T10:41:54.084Z,100287.52
2018-07-27T10:42:57.482Z,100277.73
2018-07-27T10:44:00.881Z,100273.54
2018-07-27T10:45:04.405Z,100285.52
2018-07-27T10:46:07.840Z,100277.13
2018-07-27T10:47:11.376Z,100279.33
2018-07-27T10:48:14.785Z,100279.33
2018-07-27T10:49:18.267Z,100277.92
2018-07-27T10:50:21.688Z,100276.73
2018-07-27T10:51:25.098Z,100276.12
2018-07-27T10:52:28.510Z,100273.73
2018-07-27T10:53:31.900Z,100265.35
2018-07-27T10:54:35.289Z,100267.14
2018-07-27T10:55:38.696Z,100268.95
2018-07-27T10:56:42.104Z,100264.95
2018-07-27T10:57:45.524Z,100268.34
2018-07-27T10:58:48.925Z,100266.95
2018-07-27T10:59:52.325Z,100264.95
2018-07-27T11:00:55.732Z,100255.77
2018-07-27T11:01:59.118Z,100250.37
2018-07-27T11:03:02.532Z,100252.56
2018-07-27T11:04:05.968Z,100253.97
2018-07-27T11:05:09.875Z,100257.36
2018-07-27T11:06:13.981Z,100258.16
2018-07-27T11:07:17.413Z,100257.36
2018-07-27T11:08:20.843Z,100258.95
2018-07-27T11:09:24.269Z,100259.75
2018-07-27T11:10:27.700Z,100254.77
2018-07-27T11:11:31.144Z,100258.35
2018-07-27T11:12:34.772Z,100256.36
2018-07-27T11:13:38.264Z,100248.58
2018-07-27T11:14:41.699Z,100252.16
2018-07-27T11:15:45.107Z,100252.16
2018-07-27T11:16:48.501Z,100247.77
2018-07-27T11:17:52.076Z,100255.16
2018-07-27T11:18:55.364Z,100255.95
2018-07-27T11:19:58.824Z,100248.97
2018-07-27T11:21:02.312Z,100246.17
2018-07-27T11:22:05.694Z,100244.17
2018-07-27T11:23:09.163Z,100242.77
2018-07-27T11:24:12.596Z,100244.37
2018-07-27T11:25:16.003Z,100242.17
2018-07-27T11:26:19.398Z,100242.97
2018-07-27T11:27:22.814Z,100227.59
2018-07-27T11:28:26.194Z,100229.80
2018-07-27T11:29:29.843Z,100230.59
2018-07-27T11:30:33.221Z,100237.17
2018-07-27T11:31:36.660Z,100237.97
2018-07-27T11:32:40.056Z,100235.59
2018-07-27T11:33:43.471Z,100225.61
2018-07-27T11:34:46.895Z,100227.61
2018-07-27T11:35:50.458Z,100222.61
2018-07-27T11:36:54.368Z,100223.02
2018-07-27T11:37:57.972Z,100225.22
2018-07-27T11:39:01.388Z,100224.61
2018-07-27T11:40:05.632Z,100217.82
2018-07-27T11:41:09.030Z,100219.02
2018-07-27T11:42:12.453Z,100219.82
2018-07-27T11:43:15.855Z,100210.83
2018-07-27T11:44:19.259Z,100212.23
2018-07-27T11:45:22.700Z,100211.03
2018-07-27T11:46:26.146Z,100208.23
2018-07-27T11:47:29.552Z,100208.42
2018-07-27T11:48:32.970Z,100207.23
2018-07-27T11:49:36.430Z,100202.23
2018-07-27T11:50:39.853Z,100205.83
2018-07-27T11:51:43.313Z,100212.41
2018-07-27T11:52:46.719Z,100205.42
2018-07-27T11:53:50.111Z,100207.42
2018-07-27T11:54:53.518Z,100207.20
2018-07-27T11:55:56.994Z,100207.81
2018-07-27T11:57:00.412Z,100203.62
2018-07-27T11:58:03.816Z,100201.62
2018-07-27T11:59:07.233Z,100201.62
2018-07-27T12:00:10.671Z,100203.02
2018-07-27T12:01:14.086Z,100199.62
2018-07-27T12:02:17.507Z,100199.02
2018-07-27T12:03:20.920Z,100194.03
2018-07-27T12:04:24.294Z,100192.03
2018-07-27T12:05:27.725Z,100188.63